Maersk Lirquen — VRKB8 — position and weather

sailwx.info

Track history (hours):
 
Tides and Currents Weather Stations Pressure Air Temp Water Temp Dewpoint Dewpoint Depression Visibility Wind Speed Wind Dir Waves Ship Positions

Maersk Lirquen

Last reported at 2015-Apr-13 06:33 UTC. Time now 2015-Apr-21 09:48 UTC.
Position S 24°33' W 046°04'.
Warning: this ship's position is 8 days out of date.

Length 300 m; draft 12.5 m.

Type: Ship (hazmat cat A). MMSI: 477423500.

Date/timePositionNaut miles runAvg speedWind from/ knotsBaromVisibWave heightAir tempDewpointWater temp
2015-Apr-13 06:33S 24°33' W 046°04'2019.6
2015-Apr-13 05:33S 24°18' W 046°17'1615.6
2015-Apr-13 04:33S 24°03' W 046°21'6 5.9
2015-Apr-13 03:34S 23°58' W 046°18'0 0.2
2015-Apr-13 02:33S 23°58' W 046°18'0 0.0
2015-Apr-13 01:33S 23°58' W 046°18'0 0.0
2015-Apr-13 00:33S 23°58' W 046°18'0 0.0
2015-Apr-12 23:30S 23°58' W 046°18'0 0.0
2015-Apr-12 22:33S 23°58' W 046°18'0 0.0
2015-Apr-12 21:33S 23°58' W 046°18'0 0.0
2015-Apr-12 20:33S 23°58' W 046°18'0 0.0
2015-Apr-12 19:33S 23°58' W 046°18'0 0.0
2015-Apr-12 18:33S 23°58' W 046°18'0 0.0
2015-Apr-12 17:30S 23°58' W 046°18'0 0.0
2015-Apr-12 16:30S 23°58' W 046°18'0 0.0
2015-Apr-12 15:33S 23°58' W 046°18'0 0.0
2015-Apr-12 14:30S 23°58' W 046°18'0 0.0
2015-Apr-12 13:30S 23°58' W 046°18'0 0.0
2015-Apr-12 12:33S 23°58' W 046°18'0 0.0
2015-Apr-12 11:30S 23°58' W 046°18'0 0.0
2015-Apr-12 10:33S 23°58' W 046°18'0 0.0
2015-Apr-12 09:33S 23°58' W 046°18'4 4.1
2015-Apr-12 08:33S 24°01' W 046°21'1110.7
2015-Apr-12 07:33S 24°11' W 046°25'1 0.5
2015-Apr-12 06:33S 24°12' W 046°24'5 5.2
2015-Apr-12 05:34S 24°16' W 046°20'1917.5
2015-Apr-12 04:29S 24°22' W 046°01'2122.2
2015-Apr-12 03:33S 24°18' W 045°38'9 0.3
2015-Apr-10 18:17S 24°25' W 045°46'2021.9
2015-Apr-10 17:23S 24°36' W 046°04'2121.9
2015-Apr-10 16:25S 24°47' W 046°24'  
2015-Apr-06 10:15S 24°29' W 046°36'1420.3
2015-Apr-06 09:33S 24°17' W 046°29'1716.8
2015-Apr-06 08:33S 24°02' W 046°21'4 4.2
2015-Apr-06 07:33S 23°58' W 046°18'0 0.0
2015-Apr-06 06:32S 23°58' W 046°18'0 0.0
2015-Apr-06 05:32S 23°58' W 046°18'0 0.0
2015-Apr-06 04:29S 23°58' W 046°18'0 0.0
2015-Apr-06 03:32S 23°58' W 046°18'0 0.0
2015-Apr-06 02:32S 23°58' W 046°18'0 0.0
2015-Apr-06 01:32S 23°58' W 046°18'0 0.0
2015-Apr-06 00:32S 23°58' W 046°18'0 0.0
2015-Apr-05 23:32S 23°58' W 046°18'0 0.0
2015-Apr-05 22:32S 23°58' W 046°18'0 0.0
2015-Apr-05 21:17S 23°58' W 046°18'0 0.0
2015-Apr-05 20:32S 23°58' W 046°18'0 0.0
2015-Apr-05 19:32S 23°58' W 046°18'0 0.0
2015-Apr-05 18:29S 23°58' W 046°18'0 0.0
2015-Apr-05 17:32S 23°58' W 046°18'0 0.0
2015-Apr-05 16:32S 23°58' W 046°18'0 0.0
2015-Apr-05 15:32S 23°58' W 046°18'0 0.0
2015-Apr-05 14:29S 23°58' W 046°18'0 0.0
2015-Apr-05 13:32S 23°58' W 046°18'0 0.0
2015-Apr-05 12:26S 23°58' W 046°18'0 0.0
2015-Apr-05 11:32S 23°58' W 046°18'0 0.0
2015-Apr-05 10:34S 23°58' W 046°18'4 3.6
2015-Apr-05 09:34S 24°01' W 046°20'7 7.1
2015-Apr-05 08:33S 24°08' W 046°23'7 6.6
2015-Apr-05 07:33S 24°14' W 046°22'7 6.6
2015-Apr-05 06:33S 24°19' W 046°17'1313.3
2015-Apr-05 05:34S 24°22' W 046°03'1717.3
2015-Apr-05 04:33S 24°18' W 045°45'  
Track history (hours):
 
Tides and Currents Weather Stations Pressure Air Temp Water Temp Dewpoint Dewpoint Depression Visibility Wind Speed Wind Dir Waves Ship Positions

Maersk Lirquen

Last reported at 2015-Apr-13 06:33 UTC. Time now 2015-Apr-21 09:48 UTC.
Position S 24°33' W 046°04'.
Warning: this ship's position is 8 days out of date.

Length 300 m; draft 12.5 m.

Type: Ship (hazmat cat A). MMSI: 477423500.

Date/timePositionNaut miles runAvg speedWind from/ knotsBaromVisibWave heightAir tempDewpointWater temp
2015-Apr-13 06:33S 24°33' W 046°04'2019.6
2015-Apr-13 05:33S 24°18' W 046°17'1615.6
2015-Apr-13 04:33S 24°03' W 046°21'6 5.9
2015-Apr-13 03:34S 23°58' W 046°18'0 0.2
2015-Apr-13 02:33S 23°58' W 046°18'0 0.0
2015-Apr-13 01:33S 23°58' W 046°18'0 0.0
2015-Apr-13 00:33S 23°58' W 046°18'0 0.0
2015-Apr-12 23:30S 23°58' W 046°18'0 0.0
2015-Apr-12 22:33S 23°58' W 046°18'0 0.0
2015-Apr-12 21:33S 23°58' W 046°18'0 0.0
2015-Apr-12 20:33S 23°58' W 046°18'0 0.0
2015-Apr-12 19:33S 23°58' W 046°18'0 0.0
2015-Apr-12 18:33S 23°58' W 046°18'0 0.0
2015-Apr-12 17:30S 23°58' W 046°18'0 0.0
2015-Apr-12 16:30S 23°58' W 046°18'0 0.0
2015-Apr-12 15:33S 23°58' W 046°18'0 0.0
2015-Apr-12 14:30S 23°58' W 046°18'0 0.0
2015-Apr-12 13:30S 23°58' W 046°18'0 0.0
2015-Apr-12 12:33S 23°58' W 046°18'0 0.0
2015-Apr-12 11:30S 23°58' W 046°18'0 0.0
2015-Apr-12 10:33S 23°58' W 046°18'0 0.0
2015-Apr-12 09:33S 23°58' W 046°18'4 4.1
2015-Apr-12 08:33S 24°01' W 046°21'1110.7
2015-Apr-12 07:33S 24°11' W 046°25'1 0.5
2015-Apr-12 06:33S 24°12' W 046°24'5 5.2
2015-Apr-12 05:34S 24°16' W 046°20'1917.5
2015-Apr-12 04:29S 24°22' W 046°01'2122.2
2015-Apr-12 03:33S 24°18' W 045°38'9 0.3
2015-Apr-10 18:17S 24°25' W 045°46'2021.9
2015-Apr-10 17:23S 24°36' W 046°04'2121.9
2015-Apr-10 16:25S 24°47' W 046°24'  
2015-Apr-06 10:15S 24°29' W 046°36'1420.3
2015-Apr-06 09:33S 24°17' W 046°29'1716.8
2015-Apr-06 08:33S 24°02' W 046°21'4 4.2
2015-Apr-06 07:33S 23°58' W 046°18'0 0.0
2015-Apr-06 06:32S 23°58' W 046°18'0 0.0
2015-Apr-06 05:32S 23°58' W 046°18'0 0.0
2015-Apr-06 04:29S 23°58' W 046°18'0 0.0
2015-Apr-06 03:32S 23°58' W 046°18'0 0.0
2015-Apr-06 02:32S 23°58' W 046°18'0 0.0
2015-Apr-06 01:32S 23°58' W 046°18'0 0.0
2015-Apr-06 00:32S 23°58' W 046°18'0 0.0
2015-Apr-05 23:32S 23°58' W 046°18'0 0.0
2015-Apr-05 22:32S 23°58' W 046°18'0 0.0
2015-Apr-05 21:17S 23°58' W 046°18'0 0.0
2015-Apr-05 20:32S 23°58' W 046°18'0 0.0
2015-Apr-05 19:32S 23°58' W 046°18'0 0.0
2015-Apr-05 18:29S 23°58' W 046°18'0 0.0
2015-Apr-05 17:32S 23°58' W 046°18'0 0.0
2015-Apr-05 16:32S 23°58' W 046°18'0 0.0
2015-Apr-05 15:32S 23°58' W 046°18'0 0.0
2015-Apr-05 14:29S 23°58' W 046°18'0 0.0
2015-Apr-05 13:32S 23°58' W 046°18'0 0.0
2015-Apr-05 12:26S 23°58' W 046°18'0 0.0
2015-Apr-05 11:32S 23°58' W 046°18'0 0.0
2015-Apr-05 10:34S 23°58' W 046°18'4 3.6
2015-Apr-05 09:34S 24°01' W 046°20'7 7.1
2015-Apr-05 08:33S 24°08' W 046°23'7 6.6
2015-Apr-05 07:33S 24°14' W 046°22'7 6.6
2015-Apr-05 06:33S 24°19' W 046°17'1313.3
2015-Apr-05 05:34S 24°22' W 046°03'1717.3
2015-Apr-05 04:33S 24°18' W 045°45'  

Dump ship's entire track history